ROMMA est une association bénévole à but non lucratif. Votre soutien est indispensable : ADHERER à ROMMA ou FAIRE un DON

Granges-lès-Beaumont - (26, Drôme)

Drôme des Collines (155 m)   Longitude: 04°58'E   Latitude: 45°03'N Station partenaire n°123
 

Détail journalier du     <<     >>

Température Precipitation Humidité Pression Vent Dir Rafale Dir. rafale Ensol.
Heure (°C) (mm) (%) (hPa) (km/h) (km/h) (min)
01:00 11.507610109SSO23S0
02:00 11.307810108SSO19S0
03:00 11.008010107SSO18S0
04:00 11.107910106SSO21SSO0
05:00 11.207910108SSO18SO0
06:00 10.908110119SO27S0
07:00 9.808310123O11O0
08:00 8.908710134ENE13E0
09:00 8.709010142E8E0
10:00 9.809010145E11E0
11:00 11.108610165ENE11ENE0
12:00 11.2087101610ENE18ENE0
13:00 11.20.28910165E16ESE0
14:00 12.608010163OSO15ESE40
15:00 13.207810156ESE15E60
16:00 12.308410168ENE13E10
17:00 11.108610177NE15ENE0
18:00 9.70.29110181---10NO0
19:00 9.70.29110182NE10NNE0
20:00 9.609210193NO13N0
21:00 9.409310203NO8NNO0
22:00 9.509110201NO6NO0
23:00 8.809410203NO8NO0
minuit 8.709010215NNE8N0

Graphique du 29-11-2019

 

Serveur OMMA